Site:       
  Group:  
  From:      To:        
   
Sensor Name: Furnace      Latitude:-9.57320000 , Longitude:53.92290000
Please click on the Table Headers to view a Graph of the Observations.
TimeMax. Temp. (°C)Min. Temp. (°C)Mean Temp. (°C)Tot. Rain (mm)Mean Wind (kn)Max Gust (kn)Solar Rad. (J\cm2)Humidity (%)Atmos. Press. (mb)Temp. 5cm (°C)Temp. 10cm (°C)Temp. 20cm (°C)Temp. 30cm (°C)Temp. 50cm (°C)Temp. 100cm (°C)Grass Min. (°C)
17/11/2018 23:00:009.40 8.70 9.00 0.00 16.10 27.60 0.00 86.50 1019.30 9.40 9.70 10.10 10.20 9.80 10.10 8.20
17/11/2018 22:00:0010.40 9.40 9.90 0.00 14.60 24.40 0.00 84.70 1019.20 10.00 10.20 10.20 10.20 9.80 10.10 8.80
17/11/2018 21:00:0011.30 10.40 10.90 0.00 13.10 22.10 0.00 84.90 1019.00 10.40 10.40 10.30 10.30 9.80 10.10 10.00
17/11/2018 20:00:0011.50 11.30 11.40 0.00 12.70 20.50 0.00 87.10 1018.80 10.40 10.40 10.30 10.30 9.80 10.10 11.20
17/11/2018 19:00:0011.60 11.30 11.50 0.00 13.60 22.70 0.00 85.80 1018.40 10.60 10.60 10.40 10.20 9.70 10.10 10.90
17/11/2018 18:00:0011.90 11.60 11.70 0.00 16.70 28.30 0.00 83.30 1018.00 10.90 10.90 10.40 10.20 9.70 10.10 11.20
17/11/2018 17:00:0012.10 11.80 11.90 0.00 16.10 25.40 0.90 85.40 1017.60 11.20 11.00 10.40 10.20 9.70 10.10 11.60
17/11/2018 16:00:0012.40 12.10 12.30 0.00 17.70 26.20 17.50 84.20 1017.40 11.40 11.10 10.30 10.10 9.70 10.10 12.10
17/11/2018 15:00:0012.90 12.40 12.70 0.00 17.60 28.80 30.70 83.50 1017.30 11.40 11.10 10.20 10.10 9.70 10.10 12.80
17/11/2018 14:00:0013.10 12.80 12.90 0.00 16.30 26.90 19.90 83.50 1017.50 11.30 11.00 10.10 10.00 9.70 10.10 13.00
17/11/2018 13:00:0013.30 13.10 13.20 0.00 17.80 26.40 27.40 83.40 1017.30 11.20 10.80 10.00 10.00 9.60 10.10 13.60
17/11/2018 12:00:0013.30 13.00 13.10 0.00 17.60 25.30 29.40 84.10 1017.10 10.90 10.60 9.90 10.00 9.60 10.10 13.40
17/11/2018 11:00:0013.00 12.80 12.90 0.00 16.80 24.80 16.80 86.50 1017.10 10.60 10.40 9.90 9.90 9.60 10.10 12.90
17/11/2018 10:00:0012.90 12.70 12.80 0.00 20.60 28.70 10.90 86.70 1016.90 10.40 10.20 9.90 9.90 9.60 10.10 12.60
17/11/2018 09:00:0012.70 12.40 12.60 0.00 17.50 27.10 3.30 87.20 1016.60 10.30 10.20 9.90 9.90 9.60 10.10 12.10
17/11/2018 08:00:0012.50 12.30 12.40 0.00 14.20 25.40 0.00 88.00 1016.00 10.30 10.20 9.80 9.80 9.60 10.10 11.80
17/11/2018 07:00:0012.80 12.40 12.60 0.00 12.70 25.00 0.00 86.80 1015.70 10.40 10.30 9.80 9.80 9.50 10.10 12.00
17/11/2018 06:00:0012.90 12.80 12.90 0.00 10.90 23.80 0.00 85.50 1015.50 10.40 10.30 9.80 9.80 9.50 10.00 12.50
17/11/2018 05:00:0013.10 12.90 13.00 0.00 20.80 30.20 0.00 84.90 1014.40 10.40 10.30 9.70 9.80 9.50 10.00 12.50
17/11/2018 04:00:0013.10 12.90 13.00 0.00 21.80 31.40 0.00 84.80 1014.40 10.40 10.20 9.70 9.70 9.50 10.00 12.50
17/11/2018 03:00:0013.10 12.80 12.90 0.00 13.60 25.10 0.00 85.60 1015.00 10.30 10.20 9.70 9.70 9.50 10.00 12.60
17/11/2018 02:00:0013.00 12.80 12.90 0.00 6.40 17.10 0.00 85.60 1014.90 10.30 10.10 9.60 9.70 9.40 10.00 12.40
17/11/2018 01:00:0012.90 12.80 12.80 0.00 8.70 21.40 0.00 84.20 1014.70 10.20 10.10 9.60 9.60 9.40 10.00 12.40
17/11/2018 00:00:0012.80 12.60 12.70 0.00 8.50 19.20 0.00 84.60 1014.90 10.20 10.10 9.70 9.60 9.40 10.00 12.40
16/11/2018 23:00:0012.60 12.30 12.50 0.00 15.50 26.40 0.00 85.40 1014.60 10.20 10.10 9.60 9.50 9.40 10.00 -999.00
16/11/2018 22:00:0012.50 12.40 12.50 0.00 14.10 23.50 0.00 87.20 1014.60 10.20 10.00 9.60 9.50 9.40 10.00 -999.00